sensor_id;sensor_type;location;lat;lon;timestamp;temperature;humidity
39925;DHT22;25592;49.986;11.618;2023-02-28T00:02:02;0.60;99.90
39925;DHT22;25592;49.986;11.618;2023-02-28T00:04:48;0.60;99.90
39925;DHT22;25592;49.986;11.618;2023-02-28T00:07:38;0.50;99.90
39925;DHT22;25592;49.986;11.618;2023-02-28T00:10:28;0.40;99.90
39925;DHT22;25592;49.986;11.618;2023-02-28T00:13:14;0.50;99.90
39925;DHT22;25592;49.986;11.618;2023-02-28T00:16:01;0.50;99.90
39925;DHT22;25592;49.986;11.618;2023-02-28T00:18:46;0.60;99.90
39925;DHT22;25592;49.986;11.618;2023-02-28T00:21:32;0.50;99.90
39925;DHT22;25592;49.986;11.618;2023-02-28T00:24:18;0.40;99.90
39925;DHT22;25592;49.986;11.618;2023-02-28T00:27:03;0.40;99.90
39925;DHT22;25592;49.986;11.618;2023-02-28T00:29:49;0.50;99.90
39925;DHT22;25592;49.986;11.618;2023-02-28T00:32:34;0.40;99.90
39925;DHT22;25592;49.986;11.618;2023-02-28T00:35:19;0.50;99.90
39925;DHT22;25592;49.986;11.618;2023-02-28T00:38:05;0.60;99.90
39925;DHT22;25592;49.986;11.618;2023-02-28T00:40:50;0.60;99.90
39925;DHT22;25592;49.986;11.618;2023-02-28T00:43:37;0.50;99.90
39925;DHT22;25592;49.986;11.618;2023-02-28T00:46:22;0.50;99.90
39925;DHT22;25592;49.986;11.618;2023-02-28T00:49:08;0.50;99.90
39925;DHT22;25592;49.986;11.618;2023-02-28T00:51:54;0.60;99.90
39925;DHT22;25592;49.986;11.618;2023-02-28T00:54:40;0.60;99.90
39925;DHT22;25592;49.986;11.618;2023-02-28T00:57:25;0.60;99.90
39925;DHT22;25592;49.986;11.618;2023-02-28T01:00:11;0.60;99.90
39925;DHT22;25592;49.986;11.618;2023-02-28T01:02:57;0.70;99.90
39925;DHT22;25592;49.986;11.618;2023-02-28T01:05:42;0.80;99.90
39925;DHT22;25592;49.986;11.618;2023-02-28T01:08:27;0.80;99.90
39925;DHT22;25592;49.986;11.618;2023-02-28T01:11:15;0.80;99.90
39925;DHT22;25592;49.986;11.618;2023-02-28T01:14:01;0.80;99.90
39925;DHT22;25592;49.986;11.618;2023-02-28T01:16:47;0.80;99.90
39925;DHT22;25592;49.986;11.618;2023-02-28T01:19:32;0.80;99.90
39925;DHT22;25592;49.986;11.618;2023-02-28T01:22:18;0.80;99.90
39925;DHT22;25592;49.986;11.618;2023-02-28T01:25:04;0.80;99.90
39925;DHT22;25592;49.986;11.618;2023-02-28T01:27:49;0.80;99.90
39925;DHT22;25592;49.986;11.618;2023-02-28T01:30:35;0.80;99.90
39925;DHT22;25592;49.986;11.618;2023-02-28T01:33:20;0.80;99.90
39925;DHT22;25592;49.986;11.618;2023-02-28T01:36:09;0.80;99.90
39925;DHT22;25592;49.986;11.618;2023-02-28T01:38:55;0.90;99.90
39925;DHT22;25592;49.986;11.618;2023-02-28T01:41:40;0.90;99.90
39925;DHT22;25592;49.986;11.618;2023-02-28T01:44:56;0.80;99.90
39925;DHT22;25592;49.986;11.618;2023-02-28T01:47:43;0.80;99.90
39925;DHT22;25592;49.986;11.618;2023-02-28T01:50:31;0.70;99.90
39925;DHT22;25592;49.986;11.618;2023-02-28T01:53:26;0.70;99.90
39925;DHT22;25592;49.986;11.618;2023-02-28T01:56:14;0.60;99.90
39925;DHT22;25592;49.986;11.618;2023-02-28T01:59:05;0.60;99.90
39925;DHT22;25592;49.986;11.618;2023-02-28T02:01:51;0.60;99.90
39925;DHT22;25592;49.986;11.618;2023-02-28T02:04:45;0.70;99.90
39925;DHT22;25592;49.986;11.618;2023-02-28T02:07:34;0.70;99.90
39925;DHT22;25592;49.986;11.618;2023-02-28T02:10:27;0.70;99.90
39925;DHT22;25592;49.986;11.618;2023-02-28T02:14:03;0.70;99.90
39925;DHT22;25592;49.986;11.618;2023-02-28T02:23:17;0.60;99.90
39925;DHT22;25592;49.986;11.618;2023-02-28T02:35:56;0.50;99.90
39925;DHT22;25592;49.986;11.618;2023-02-28T02:38:50;0.50;99.90
39925;DHT22;25592;49.986;11.618;2023-02-28T02:41:41;0.40;99.90
39925;DHT22;25592;49.986;11.618;2023-02-28T02:44:46;0.40;99.90
39925;DHT22;25592;49.986;11.618;2023-02-28T02:47:33;0.40;99.90
39925;DHT22;25592;49.986;11.618;2023-02-28T02:50:24;0.40;99.90
39925;DHT22;25592;49.986;11.618;2023-02-28T02:53:12;0.40;99.90
39925;DHT22;25592;49.986;11.618;2023-02-28T02:56:00;0.40;99.90
39925;DHT22;25592;49.986;11.618;2023-02-28T02:58:47;0.50;99.90
39925;DHT22;25592;49.986;11.618;2023-02-28T03:01:35;0.50;99.90
39925;DHT22;25592;49.986;11.618;2023-02-28T03:04:24;0.50;99.90
39925;DHT22;25592;49.986;11.618;2023-02-28T03:07:10;0.50;99.90
39925;DHT22;25592;49.986;11.618;2023-02-28T03:09:56;0.40;99.90
39925;DHT22;25592;49.986;11.618;2023-02-28T03:12:51;0.30;99.90
39925;DHT22;25592;49.986;11.618;2023-02-28T03:15:57;0.40;99.90
39925;DHT22;25592;49.986;11.618;2023-02-28T03:25:18;0.20;99.90
39925;DHT22;25592;49.986;11.618;2023-02-28T03:28:12;0.20;99.90
39925;DHT22;25592;49.986;11.618;2023-02-28T03:31:15;0.20;99.90
39925;DHT22;25592;49.986;11.618;2023-02-28T03:34:24;0.30;99.90
39925;DHT22;25592;49.986;11.618;2023-02-28T03:37:15;0.20;99.90
39925;DHT22;25592;49.986;11.618;2023-02-28T03:40:14;0.20;99.90
39925;DHT22;25592;49.986;11.618;2023-02-28T03:43:04;0.20;99.90
39925;DHT22;25592;49.986;11.618;2023-02-28T03:45:54;0.20;99.90
39925;DHT22;25592;49.986;11.618;2023-02-28T03:48:46;0.30;99.90
39925;DHT22;25592;49.986;11.618;2023-02-28T03:51:33;0.10;99.90
39925;DHT22;25592;49.986;11.618;2023-02-28T03:54:23;0.20;99.90
39925;DHT22;25592;49.986;11.618;2023-02-28T03:57:39;0.20;99.90
39925;DHT22;25592;49.986;11.618;2023-02-28T04:00:37;0.20;99.90
39925;DHT22;25592;49.986;11.618;2023-02-28T04:03:23;0.30;99.90
39925;DHT22;25592;49.986;11.618;2023-02-28T04:06:15;0.40;99.90
39925;DHT22;25592;49.986;11.618;2023-02-28T04:09:03;0.40;99.90
39925;DHT22;25592;49.986;11.618;2023-02-28T04:11:53;0.20;99.90
39925;DHT22;25592;49.986;11.618;2023-02-28T04:14:38;0.30;99.90
39925;DHT22;25592;49.986;11.618;2023-02-28T04:17:24;0.20;99.90
39925;DHT22;25592;49.986;11.618;2023-02-28T04:20:10;0.20;99.90
39925;DHT22;25592;49.986;11.618;2023-02-28T04:22:55;0.30;99.90
39925;DHT22;25592;49.986;11.618;2023-02-28T04:25:41;0.40;99.90
39925;DHT22;25592;49.986;11.618;2023-02-28T04:28:26;0.40;99.90
39925;DHT22;25592;49.986;11.618;2023-02-28T04:31:11;0.40;99.90
39925;DHT22;25592;49.986;11.618;2023-02-28T04:33:57;0.40;99.90
39925;DHT22;25592;49.986;11.618;2023-02-28T04:36:42;0.40;99.90
39925;DHT22;25592;49.986;11.618;2023-02-28T04:39:27;0.40;99.90
39925;DHT22;25592;49.986;11.618;2023-02-28T04:42:13;0.40;99.90
39925;DHT22;25592;49.986;11.618;2023-02-28T04:44:59;0.30;99.90
39925;DHT22;25592;49.986;11.618;2023-02-28T04:47:44;0.30;99.90
39925;DHT22;25592;49.986;11.618;2023-02-28T04:50:29;0.40;99.90
39925;DHT22;25592;49.986;11.618;2023-02-28T04:53:15;0.40;99.90
39925;DHT22;25592;49.986;11.618;2023-02-28T04:56:00;0.30;99.90
39925;DHT22;25592;49.986;11.618;2023-02-28T04:58:46;0.10;99.90
39925;DHT22;25592;49.986;11.618;2023-02-28T05:01:33;0.20;99.90
39925;DHT22;25592;49.986;11.618;2023-02-28T05:04:18;0.20;99.90
39925;DHT22;25592;49.986;11.618;2023-02-28T05:07:04;0.00;99.90
39925;DHT22;25592;49.986;11.618;2023-02-28T05:09:49;0.20;99.90
39925;DHT22;25592;49.986;11.618;2023-02-28T05:12:34;0.20;99.90
39925;DHT22;25592;49.986;11.618;2023-02-28T05:15:20;0.30;99.90
39925;DHT22;25592;49.986;11.618;2023-02-28T05:18:05;0.40;99.90
39925;DHT22;25592;49.986;11.618;2023-02-28T05:20:51;0.40;99.90
39925;DHT22;25592;49.986;11.618;2023-02-28T05:23:36;0.30;99.90
39925;DHT22;25592;49.986;11.618;2023-02-28T05:26:22;0.40;99.90
39925;DHT22;25592;49.986;11.618;2023-02-28T05:29:08;0.40;99.90
39925;DHT22;25592;49.986;11.618;2023-02-28T05:31:54;0.50;99.90
39925;DHT22;25592;49.986;11.618;2023-02-28T05:34:39;0.50;99.90
39925;DHT22;25592;49.986;11.618;2023-02-28T05:37:25;0.60;99.90
39925;DHT22;25592;49.986;11.618;2023-02-28T05:40:10;0.60;99.90
39925;DHT22;25592;49.986;11.618;2023-02-28T05:42:56;0.60;99.90
39925;DHT22;25592;49.986;11.618;2023-02-28T05:45:41;0.60;99.90
39925;DHT22;25592;49.986;11.618;2023-02-28T05:48:27;0.50;99.90
39925;DHT22;25592;49.986;11.618;2023-02-28T05:51:12;0.50;99.90
39925;DHT22;25592;49.986;11.618;2023-02-28T05:54:01;0.40;99.90
39925;DHT22;25592;49.986;11.618;2023-02-28T05:56:46;0.50;99.90
39925;DHT22;25592;49.986;11.618;2023-02-28T05:59:31;0.50;99.90
39925;DHT22;25592;49.986;11.618;2023-02-28T06:02:17;0.50;99.90
39925;DHT22;25592;49.986;11.618;2023-02-28T06:05:03;0.50;99.90
39925;DHT22;25592;49.986;11.618;2023-02-28T06:07:48;0.50;99.90
39925;DHT22;25592;49.986;11.618;2023-02-28T06:10:34;0.50;99.90
39925;DHT22;25592;49.986;11.618;2023-02-28T06:13:20;0.50;99.90
39925;DHT22;25592;49.986;11.618;2023-02-28T06:16:06;0.60;99.90
39925;DHT22;25592;49.986;11.618;2023-02-28T06:18:52;0.70;99.90
39925;DHT22;25592;49.986;11.618;2023-02-28T06:21:37;0.70;99.90
39925;DHT22;25592;49.986;11.618;2023-02-28T06:24:24;0.70;99.90
39925;DHT22;25592;49.986;11.618;2023-02-28T06:27:10;0.80;99.90
39925;DHT22;25592;49.986;11.618;2023-02-28T06:29:55;0.80;99.90
39925;DHT22;25592;49.986;11.618;2023-02-28T06:32:41;0.80;99.90
39925;DHT22;25592;49.986;11.618;2023-02-28T06:35:26;0.80;99.90
39925;DHT22;25592;49.986;11.618;2023-02-28T06:38:12;0.60;99.90
39925;DHT22;25592;49.986;11.618;2023-02-28T06:40:59;0.70;99.90
39925;DHT22;25592;49.986;11.618;2023-02-28T06:43:45;0.70;99.90
39925;DHT22;25592;49.986;11.618;2023-02-28T06:46:30;0.70;99.90
39925;DHT22;25592;49.986;11.618;2023-02-28T06:49:16;0.70;99.90
39925;DHT22;25592;49.986;11.618;2023-02-28T06:52:02;0.80;99.90
39925;DHT22;25592;49.986;11.618;2023-02-28T06:54:48;0.80;99.90
39925;DHT22;25592;49.986;11.618;2023-02-28T06:57:44;0.80;99.90
39925;DHT22;25592;49.986;11.618;2023-02-28T07:00:29;1.00;99.90
39925;DHT22;25592;49.986;11.618;2023-02-28T07:03:15;1.00;99.90
39925;DHT22;25592;49.986;11.618;2023-02-28T07:06:01;1.10;99.90
39925;DHT22;25592;49.986;11.618;2023-02-28T07:08:46;1.10;99.90
39925;DHT22;25592;49.986;11.618;2023-02-28T07:11:32;1.10;99.90
39925;DHT22;25592;49.986;11.618;2023-02-28T07:14:17;1.20;99.90
39925;DHT22;25592;49.986;11.618;2023-02-28T07:17:03;1.30;99.90
39925;DHT22;25592;49.986;11.618;2023-02-28T07:19:48;1.30;99.90
39925;DHT22;25592;49.986;11.618;2023-02-28T07:22:34;1.30;99.90
39925;DHT22;25592;49.986;11.618;2023-02-28T07:25:19;1.40;99.90
39925;DHT22;25592;49.986;11.618;2023-02-28T07:28:05;1.50;99.90
39925;DHT22;25592;49.986;11.618;2023-02-28T07:30:50;1.50;99.90
39925;DHT22;25592;49.986;11.618;2023-02-28T07:33:36;1.50;99.90
39925;DHT22;25592;49.986;11.618;2023-02-28T07:36:21;1.50;99.90
39925;DHT22;25592;49.986;11.618;2023-02-28T07:39:07;1.50;99.90
39925;DHT22;25592;49.986;11.618;2023-02-28T07:41:54;1.60;99.90
39925;DHT22;25592;49.986;11.618;2023-02-28T07:44:39;1.60;99.90
39925;DHT22;25592;49.986;11.618;2023-02-28T07:47:25;1.70;99.90
39925;DHT22;25592;49.986;11.618;2023-02-28T07:50:12;1.80;99.90
39925;DHT22;25592;49.986;11.618;2023-02-28T07:52:58;1.80;99.90
39925;DHT22;25592;49.986;11.618;2023-02-28T07:55:44;1.80;99.90
39925;DHT22;25592;49.986;11.618;2023-02-28T07:58:30;1.80;99.90
39925;DHT22;25592;49.986;11.618;2023-02-28T08:01:15;1.90;99.90
39925;DHT22;25592;49.986;11.618;2023-02-28T08:04:01;1.90;99.90
39925;DHT22;25592;49.986;11.618;2023-02-28T08:06:46;1.80;99.90
39925;DHT22;25592;49.986;11.618;2023-02-28T08:09:32;1.90;99.90
39925;DHT22;25592;49.986;11.618;2023-02-28T08:12:18;2.00;99.90
39925;DHT22;25592;49.986;11.618;2023-02-28T08:15:03;2.10;99.90
39925;DHT22;25592;49.986;11.618;2023-02-28T08:17:49;2.30;99.90
39925;DHT22;25592;49.986;11.618;2023-02-28T08:20:34;2.40;99.90
39925;DHT22;25592;49.986;11.618;2023-02-28T08:23:20;2.40;99.90
39925;DHT22;25592;49.986;11.618;2023-02-28T08:26:06;2.60;99.90
39925;DHT22;25592;49.986;11.618;2023-02-28T08:28:51;2.70;99.50
39925;DHT22;25592;49.986;11.618;2023-02-28T08:31:37;2.70;99.90
39925;DHT22;25592;49.986;11.618;2023-02-28T08:34:22;2.80;99.90
39925;DHT22;25592;49.986;11.618;2023-02-28T08:37:08;2.90;99.90
39925;DHT22;25592;49.986;11.618;2023-02-28T08:39:53;2.90;99.60
39925;DHT22;25592;49.986;11.618;2023-02-28T08:42:40;2.90;98.80
39925;DHT22;25592;49.986;11.618;2023-02-28T08:45:26;2.80;98.60
39925;DHT22;25592;49.986;11.618;2023-02-28T08:48:11;2.70;97.50
39925;DHT22;25592;49.986;11.618;2023-02-28T08:51:06;2.70;98.50
39925;DHT22;25592;49.986;11.618;2023-02-28T08:53:59;2.60;97.90
39925;DHT22;25592;49.986;11.618;2023-02-28T08:56:46;2.70;98.20
39925;DHT22;25592;49.986;11.618;2023-02-28T08:59:34;2.70;97.90
39925;DHT22;25592;49.986;11.618;2023-02-28T09:02:19;2.70;97.60
39925;DHT22;25592;49.986;11.618;2023-02-28T09:05:05;2.50;97.30
39925;DHT22;25592;49.986;11.618;2023-02-28T09:07:51;2.50;97.60
39925;DHT22;25592;49.986;11.618;2023-02-28T09:10:36;2.50;97.50
39925;DHT22;25592;49.986;11.618;2023-02-28T09:13:22;2.40;97.80
39925;DHT22;25592;49.986;11.618;2023-02-28T09:16:10;2.60;97.90
39925;DHT22;25592;49.986;11.618;2023-02-28T09:18:56;2.60;97.80
39925;DHT22;25592;49.986;11.618;2023-02-28T09:21:41;2.50;97.30
39925;DHT22;25592;49.986;11.618;2023-02-28T09:24:26;2.60;98.20
39925;DHT22;25592;49.986;11.618;2023-02-28T09:27:12;2.80;98.10
39925;DHT22;25592;49.986;11.618;2023-02-28T09:29:57;3.00;97.60
39925;DHT22;25592;49.986;11.618;2023-02-28T09:32:42;3.10;97.20
39925;DHT22;25592;49.986;11.618;2023-02-28T09:35:38;3.30;97.90
39925;DHT22;25592;49.986;11.618;2023-02-28T09:38:24;3.40;96.70
39925;DHT22;25592;49.986;11.618;2023-02-28T09:41:14;3.40;96.90
39925;DHT22;25592;49.986;11.618;2023-02-28T09:44:01;3.30;97.10
39925;DHT22;25592;49.986;11.618;2023-02-28T09:46:51;3.00;96.70
39925;DHT22;25592;49.986;11.618;2023-02-28T09:49:45;3.20;97.70
39925;DHT22;25592;49.986;11.618;2023-02-28T09:52:32;3.30;97.60
39925;DHT22;25592;49.986;11.618;2023-02-28T09:55:22;3.60;97.90
39925;DHT22;25592;49.986;11.618;2023-02-28T09:58:28;3.50;97.40
39925;DHT22;25592;49.986;11.618;2023-02-28T10:01:44;3.70;99.60
39925;DHT22;25592;49.986;11.618;2023-02-28T10:04:56;3.70;96.90
39925;DHT22;25592;49.986;11.618;2023-02-28T10:08:02;3.60;96.60
39925;DHT22;25592;49.986;11.618;2023-02-28T10:11:02;3.60;96.60
39925;DHT22;25592;49.986;11.618;2023-02-28T10:16:59;3.70;97.10
39925;DHT22;25592;49.986;11.618;2023-02-28T10:25:48;3.60;95.90
39925;DHT22;25592;49.986;11.618;2023-02-28T10:28:35;3.70;95.50
39925;DHT22;25592;49.986;11.618;2023-02-28T10:31:20;3.50;95.40
39925;DHT22;25592;49.986;11.618;2023-02-28T10:34:07;3.60;95.90
39925;DHT22;25592;49.986;11.618;2023-02-28T10:36:58;3.50;95.20
39925;DHT22;25592;49.986;11.618;2023-02-28T10:39:52;3.50;95.80
39925;DHT22;25592;49.986;11.618;2023-02-28T10:42:37;3.60;95.80
39925;DHT22;25592;49.986;11.618;2023-02-28T10:45:24;4.10;96.30
39925;DHT22;25592;49.986;11.618;2023-02-28T10:50:58;5.10;95.90
39925;DHT22;25592;49.986;11.618;2023-02-28T10:53:54;5.30;94.70
39925;DHT22;25592;49.986;11.618;2023-02-28T10:57:15;5.50;95.20
39925;DHT22;25592;49.986;11.618;2023-02-28T11:00:18;5.70;93.60
39925;DHT22;25592;49.986;11.618;2023-02-28T11:03:30;5.90;93.90
39925;DHT22;25592;49.986;11.618;2023-02-28T11:06:19;6.20;93.80
39925;DHT22;25592;49.986;11.618;2023-02-28T11:09:33;6.40;93.70
39925;DHT22;25592;49.986;11.618;2023-02-28T11:12:29;6.80;93.30
39925;DHT22;25592;49.986;11.618;2023-02-28T11:15:29;6.80;92.60
39925;DHT22;25592;49.986;11.618;2023-02-28T11:18:27;7.10;93.00
39925;DHT22;25592;49.986;11.618;2023-02-28T11:24:16;7.70;92.80
39925;DHT22;25592;49.986;11.618;2023-02-28T11:27:03;7.80;90.60
39925;DHT22;25592;49.986;11.618;2023-02-28T11:29:49;8.00;91.50
39925;DHT22;25592;49.986;11.618;2023-02-28T11:32:34;7.80;91.10
39925;DHT22;25592;49.986;11.618;2023-02-28T11:35:30;7.70;90.60
39925;DHT22;25592;49.986;11.618;2023-02-28T11:38:15;7.50;90.50
39925;DHT22;25592;49.986;11.618;2023-02-28T11:41:20;7.60;90.70
39925;DHT22;25592;49.986;11.618;2023-02-28T11:44:28;7.60;91.00
39925;DHT22;25592;49.986;11.618;2023-02-28T11:47:34;7.20;90.00
39925;DHT22;25592;49.986;11.618;2023-02-28T11:56:53;7.00;90.80
39925;DHT22;25592;49.986;11.618;2023-02-28T12:06:30;8.10;90.30
39925;DHT22;25592;49.986;11.618;2023-02-28T12:15:55;8.40;87.60
39925;DHT22;25592;49.986;11.618;2023-02-28T12:22:15;8.00;86.80
39925;DHT22;25592;49.986;11.618;2023-02-28T12:27:51;8.20;85.20
39925;DHT22;25592;49.986;11.618;2023-02-28T12:30:44;8.40;84.70
39925;DHT22;25592;49.986;11.618;2023-02-28T12:33:36;8.50;86.90
39925;DHT22;25592;49.986;11.618;2023-02-28T12:36:22;8.90;86.90
39925;DHT22;25592;49.986;11.618;2023-02-28T12:39:22;9.20;85.70
39925;DHT22;25592;49.986;11.618;2023-02-28T12:42:16;9.40;84.90
39925;DHT22;25592;49.986;11.618;2023-02-28T12:48:00;9.20;84.80
39925;DHT22;25592;49.986;11.618;2023-02-28T12:50:47;9.30;86.90
39925;DHT22;25592;49.986;11.618;2023-02-28T12:54:16;9.30;86.30
39925;DHT22;25592;49.986;11.618;2023-02-28T13:00:08;9.50;84.50
39925;DHT22;25592;49.986;11.618;2023-02-28T13:09:13;9.60;83.90
39925;DHT22;25592;49.986;11.618;2023-02-28T13:12:00;9.40;82.50
39925;DHT22;25592;49.986;11.618;2023-02-28T13:14:46;9.20;81.20
39925;DHT22;25592;49.986;11.618;2023-02-28T13:17:32;9.00;82.30
39925;DHT22;25592;49.986;11.618;2023-02-28T13:20:21;9.10;81.90
39925;DHT22;25592;49.986;11.618;2023-02-28T13:29:32;9.50;81.90
39925;DHT22;25592;49.986;11.618;2023-02-28T13:35:15;9.80;80.90
39925;DHT22;25592;49.986;11.618;2023-02-28T13:38:32;9.70;79.30
39925;DHT22;25592;49.986;11.618;2023-02-28T13:44:21;10.00;79.60
39925;DHT22;25592;49.986;11.618;2023-02-28T13:56:37;10.40;78.90
39925;DHT22;25592;49.986;11.618;2023-02-28T13:59:27;10.50;77.80
39925;DHT22;25592;49.986;11.618;2023-02-28T14:02:44;10.50;77.20
39925;DHT22;25592;49.986;11.618;2023-02-28T14:05:34;10.40;76.70
39925;DHT22;25592;49.986;11.618;2023-02-28T14:08:22;10.20;76.30
39925;DHT22;25592;49.986;11.618;2023-02-28T14:11:41;10.10;76.10
39925;DHT22;25592;49.986;11.618;2023-02-28T14:17:22;10.50;76.40
39925;DHT22;25592;49.986;11.618;2023-02-28T14:20:15;10.50;76.30
39925;DHT22;25592;49.986;11.618;2023-02-28T14:32:44;10.10;73.70
39925;DHT22;25592;49.986;11.618;2023-02-28T14:38:52;10.10;75.10
39925;DHT22;25592;49.986;11.618;2023-02-28T14:41:43;10.20;75.60
39925;DHT22;25592;49.986;11.618;2023-02-28T14:44:29;10.40;75.90
39925;DHT22;25592;49.986;11.618;2023-02-28T14:47:15;10.40;76.70
39925;DHT22;25592;49.986;11.618;2023-02-28T14:50:03;10.60;74.30
39925;DHT22;25592;49.986;11.618;2023-02-28T14:52:55;10.80;75.50
39925;DHT22;25592;49.986;11.618;2023-02-28T14:55:45;10.50;73.20
39925;DHT22;25592;49.986;11.618;2023-02-28T14:58:32;10.50;74.60
39925;DHT22;25592;49.986;11.618;2023-02-28T15:01:20;10.40;73.60
39925;DHT22;25592;49.986;11.618;2023-02-28T15:04:18;10.40;73.60
39925;DHT22;25592;49.986;11.618;2023-02-28T15:07:13;10.50;74.70
39925;DHT22;25592;49.986;11.618;2023-02-28T15:13:05;10.90;72.70
39925;DHT22;25592;49.986;11.618;2023-02-28T15:15:57;10.80;73.80
39925;DHT22;25592;49.986;11.618;2023-02-28T15:22:34;10.90;74.50
39925;DHT22;25592;49.986;11.618;2023-02-28T15:25:17;10.80;72.70
39925;DHT22;25592;49.986;11.618;2023-02-28T15:28:03;10.70;73.10
39925;DHT22;25592;49.986;11.618;2023-02-28T15:31:00;10.60;73.10
39925;DHT22;25592;49.986;11.618;2023-02-28T15:33:54;10.60;73.40
39925;DHT22;25592;49.986;11.618;2023-02-28T15:36:40;10.50;73.60
39925;DHT22;25592;49.986;11.618;2023-02-28T15:39:27;10.40;71.90
39925;DHT22;25592;49.986;11.618;2023-02-28T15:42:19;10.40;74.20
39925;DHT22;25592;49.986;11.618;2023-02-28T15:45:05;10.20;70.90
39925;DHT22;25592;49.986;11.618;2023-02-28T15:47:51;9.90;72.90
39925;DHT22;25592;49.986;11.618;2023-02-28T15:50:37;9.80;72.20
39925;DHT22;25592;49.986;11.618;2023-02-28T15:53:27;9.90;72.80
39925;DHT22;25592;49.986;11.618;2023-02-28T15:59:05;9.20;72.80
39925;DHT22;25592;49.986;11.618;2023-02-28T16:07:56;9.60;74.40
39925;DHT22;25592;49.986;11.618;2023-02-28T16:10:42;9.60;73.50
39925;DHT22;25592;49.986;11.618;2023-02-28T16:13:27;9.60;74.30
39925;DHT22;25592;49.986;11.618;2023-02-28T16:16:18;9.50;74.80
39925;DHT22;25592;49.986;11.618;2023-02-28T16:19:04;9.20;72.60
39925;DHT22;25592;49.986;11.618;2023-02-28T16:21:50;9.20;73.60
39925;DHT22;25592;49.986;11.618;2023-02-28T16:24:36;9.10;74.50
39925;DHT22;25592;49.986;11.618;2023-02-28T16:27:30;9.10;74.90
39925;DHT22;25592;49.986;11.618;2023-02-28T16:30:23;9.10;75.60
39925;DHT22;25592;49.986;11.618;2023-02-28T16:33:09;9.00;76.90
39925;DHT22;25592;49.986;11.618;2023-02-28T16:35:54;8.80;75.60
39925;DHT22;25592;49.986;11.618;2023-02-28T16:38:40;8.60;76.20
39925;DHT22;25592;49.986;11.618;2023-02-28T16:41:26;8.60;76.40
39925;DHT22;25592;49.986;11.618;2023-02-28T16:44:28;8.50;76.30
39925;DHT22;25592;49.986;11.618;2023-02-28T16:47:14;8.40;76.50
39925;DHT22;25592;49.986;11.618;2023-02-28T16:49:59;8.30;76.70
39925;DHT22;25592;49.986;11.618;2023-02-28T16:52:45;8.20;77.30
39925;DHT22;25592;49.986;11.618;2023-02-28T16:55:30;8.10;77.10
39925;DHT22;25592;49.986;11.618;2023-02-28T16:58:16;7.90;77.50
39925;DHT22;25592;49.986;11.618;2023-02-28T17:01:03;7.90;77.60
39925;DHT22;25592;49.986;11.618;2023-02-28T17:03:49;7.80;81.30
39925;DHT22;25592;49.986;11.618;2023-02-28T17:06:34;7.70;78.10
39925;DHT22;25592;49.986;11.618;2023-02-28T17:09:22;7.50;80.50
39925;DHT22;25592;49.986;11.618;2023-02-28T17:12:14;7.40;80.40
39925;DHT22;25592;49.986;11.618;2023-02-28T17:15:00;7.10;77.50
39925;DHT22;25592;49.986;11.618;2023-02-28T17:17:47;7.10;82.10
39925;DHT22;25592;49.986;11.618;2023-02-28T17:20:32;7.00;81.50
39925;DHT22;25592;49.986;11.618;2023-02-28T17:23:17;6.90;79.70
39925;DHT22;25592;49.986;11.618;2023-02-28T17:26:03;6.80;80.40
39925;DHT22;25592;49.986;11.618;2023-02-28T17:28:58;6.70;79.90
39925;DHT22;25592;49.986;11.618;2023-02-28T17:31:43;6.50;82.40
39925;DHT22;25592;49.986;11.618;2023-02-28T17:34:28;6.40;83.20
39925;DHT22;25592;49.986;11.618;2023-02-28T17:37:14;6.30;84.10
39925;DHT22;25592;49.986;11.618;2023-02-28T17:39:59;6.30;84.30
39925;DHT22;25592;49.986;11.618;2023-02-28T17:42:44;6.10;84.90
39925;DHT22;25592;49.986;11.618;2023-02-28T17:45:30;6.00;84.50
39925;DHT22;25592;49.986;11.618;2023-02-28T17:48:16;6.00;85.30
39925;DHT22;25592;49.986;11.618;2023-02-28T17:51:02;6.00;85.50
39925;DHT22;25592;49.986;11.618;2023-02-28T17:53:47;5.90;87.00
39925;DHT22;25592;49.986;11.618;2023-02-28T17:56:33;5.80;86.20
39925;DHT22;25592;49.986;11.618;2023-02-28T17:59:18;5.70;88.00
39925;DHT22;25592;49.986;11.618;2023-02-28T18:02:03;5.70;88.20
39925;DHT22;25592;49.986;11.618;2023-02-28T18:04:49;5.60;90.10
39925;DHT22;25592;49.986;11.618;2023-02-28T18:07:36;5.60;89.60
39925;DHT22;25592;49.986;11.618;2023-02-28T18:10:22;5.60;90.40
39925;DHT22;25592;49.986;11.618;2023-02-28T18:13:08;5.50;88.50
39925;DHT22;25592;49.986;11.618;2023-02-28T18:15:54;5.50;89.80
39925;DHT22;25592;49.986;11.618;2023-02-28T18:18:39;5.30;90.40
39925;DHT22;25592;49.986;11.618;2023-02-28T18:21:24;5.30;90.30
39925;DHT22;25592;49.986;11.618;2023-02-28T18:24:10;5.30;89.30
39925;DHT22;25592;49.986;11.618;2023-02-28T18:26:56;5.20;89.50
39925;DHT22;25592;49.986;11.618;2023-02-28T18:29:42;5.10;90.70
39925;DHT22;25592;49.986;11.618;2023-02-28T18:32:28;5.00;90.60
39925;DHT22;25592;49.986;11.618;2023-02-28T18:35:13;4.80;90.60
39925;DHT22;25592;49.986;11.618;2023-02-28T18:38:14;4.90;91.30
39925;DHT22;25592;49.986;11.618;2023-02-28T18:41:03;4.80;90.30
39925;DHT22;25592;49.986;11.618;2023-02-28T18:43:49;4.80;90.50
39925;DHT22;25592;49.986;11.618;2023-02-28T18:46:37;4.70;90.60
39925;DHT22;25592;49.986;11.618;2023-02-28T18:49:22;4.70;90.30
39925;DHT22;25592;49.986;11.618;2023-02-28T18:52:07;4.80;90.90
39925;DHT22;25592;49.986;11.618;2023-02-28T18:54:53;4.80;90.80
39925;DHT22;25592;49.986;11.618;2023-02-28T18:57:38;4.70;90.00
39925;DHT22;25592;49.986;11.618;2023-02-28T19:00:23;4.70;90.70
39925;DHT22;25592;49.986;11.618;2023-02-28T19:03:11;4.50;91.20
39925;DHT22;25592;49.986;11.618;2023-02-28T19:05:57;4.50;91.00
39925;DHT22;25592;49.986;11.618;2023-02-28T19:08:43;4.50;91.00
39925;DHT22;25592;49.986;11.618;2023-02-28T19:11:29;4.50;90.70
39925;DHT22;25592;49.986;11.618;2023-02-28T19:14:15;4.50;92.10
39925;DHT22;25592;49.986;11.618;2023-02-28T19:17:00;4.60;90.80
39925;DHT22;25592;49.986;11.618;2023-02-28T19:19:46;4.40;90.90
39925;DHT22;25592;49.986;11.618;2023-02-28T19:22:31;4.50;92.00
39925;DHT22;25592;49.986;11.618;2023-02-28T19:25:17;4.50;91.50
39925;DHT22;25592;49.986;11.618;2023-02-28T19:28:03;4.50;91.80
39925;DHT22;25592;49.986;11.618;2023-02-28T19:30:50;4.50;91.40
39925;DHT22;25592;49.986;11.618;2023-02-28T19:33:36;4.50;91.50
39925;DHT22;25592;49.986;11.618;2023-02-28T19:36:22;4.50;91.50
39925;DHT22;25592;49.986;11.618;2023-02-28T19:39:08;4.60;91.40
39925;DHT22;25592;49.986;11.618;2023-02-28T19:41:53;4.40;90.90
39925;DHT22;25592;49.986;11.618;2023-02-28T19:44:39;4.40;91.00
39925;DHT22;25592;49.986;11.618;2023-02-28T19:47:24;4.40;91.20
39925;DHT22;25592;49.986;11.618;2023-02-28T19:50:09;4.40;91.30
39925;DHT22;25592;49.986;11.618;2023-02-28T19:52:55;4.50;91.80
39925;DHT22;25592;49.986;11.618;2023-02-28T19:55:45;4.40;91.00